createdAt,value
2018-04-30T00:03:03.353Z,17.8
2018-04-30T00:07:57.746Z,17.8
2018-04-30T00:12:52.033Z,17.7
2018-04-30T00:17:45.764Z,17.5
2018-04-30T00:22:39.658Z,17.6
2018-04-30T00:27:34.268Z,17.5
2018-04-30T00:32:28.280Z,17.4
2018-04-30T00:37:22.576Z,17.3
2018-04-30T00:42:16.476Z,17.2
2018-04-30T00:47:10.269Z,17.2
2018-04-30T00:52:04.590Z,17.2
2018-04-30T00:56:58.653Z,17.3
2018-04-30T01:01:53.271Z,17
2018-04-30T01:06:47.421Z,17.1
2018-04-30T01:11:41.989Z,17.2
2018-04-30T01:16:36.220Z,17.1
2018-04-30T01:21:30.376Z,17.1
2018-04-30T01:26:24.454Z,17.2
2018-04-30T01:31:18.732Z,17.1
2018-04-30T01:36:12.940Z,17
2018-04-30T01:41:07.173Z,17
2018-04-30T01:46:01.650Z,17
2018-04-30T01:50:55.633Z,16.9
2018-04-30T01:55:49.669Z,16.8
2018-04-30T02:00:43.557Z,16.8
2018-04-30T02:05:37.620Z,16.7
2018-04-30T02:10:31.609Z,16.7
2018-04-30T02:15:25.694Z,16.7
2018-04-30T02:20:19.993Z,16.5
2018-04-30T02:25:13.970Z,16.5
2018-04-30T02:30:07.947Z,16.5
2018-04-30T02:35:01.843Z,16.3
2018-04-30T02:39:56.020Z,16.3
2018-04-30T02:44:50.292Z,16.3
2018-04-30T02:49:44.947Z,16.4
2018-04-30T02:54:39.186Z,16.4
2018-04-30T02:59:33.615Z,16.3
2018-04-30T03:04:27.484Z,16.4
2018-04-30T03:09:21.808Z,16.3
2018-04-30T03:14:16.257Z,16.2
2018-04-30T03:19:10.150Z,16.2
2018-04-30T03:24:04.193Z,16.2
2018-04-30T03:28:58.206Z,16.2
2018-04-30T03:33:52.232Z,16.3
2018-04-30T03:38:46.900Z,16.2
2018-04-30T03:43:40.832Z,16.2
2018-04-30T03:48:35.096Z,16.2
2018-04-30T03:53:29.068Z,16.2
2018-04-30T03:58:23.268Z,16.1
2018-04-30T04:03:17.193Z,16.2
2018-04-30T04:08:11.829Z,16.2
2018-04-30T04:13:05.772Z,16.3
2018-04-30T04:18:00.201Z,16.3
2018-04-30T04:22:54.611Z,16.3
2018-04-30T04:27:48.773Z,16.3
2018-04-30T04:32:43.565Z,16.4
2018-04-30T04:37:38.203Z,16.3
2018-04-30T04:42:32.131Z,16.5
2018-04-30T04:47:26.747Z,16.4
2018-04-30T04:52:21.287Z,16.5
2018-04-30T04:57:15.220Z,16.5
2018-04-30T05:02:09.397Z,16.5
2018-04-30T05:07:03.035Z,16.6
2018-04-30T05:11:56.861Z,16.5
2018-04-30T05:16:51.585Z,16.6
2018-04-30T05:21:46.131Z,16.6
2018-04-30T05:26:40.338Z,16.7
2018-04-30T05:31:34.343Z,16.8
2018-04-30T05:36:28.867Z,16.8
2018-04-30T05:41:22.919Z,16.8
2018-04-30T05:46:17.272Z,16.8
2018-04-30T05:51:11.377Z,16.7
2018-04-30T05:56:05.219Z,16.8
2018-04-30T06:00:59.433Z,16.9
2018-04-30T06:05:53.961Z,16.9
2018-04-30T06:10:48.398Z,17.1
2018-04-30T06:15:42.335Z,17
2018-04-30T06:20:36.982Z,17
2018-04-30T06:25:30.983Z,17.1
2018-04-30T06:30:25.316Z,17.2
2018-04-30T06:35:19.665Z,17.4
2018-04-30T06:40:14.254Z,17.5
2018-04-30T06:45:08.380Z,17.5
2018-04-30T06:50:02.913Z,17.7
2018-04-30T06:54:57.436Z,17.7
2018-04-30T06:59:51.872Z,17.8
2018-04-30T07:04:46.389Z,17.9
2018-04-30T07:09:41.113Z,18
2018-04-30T07:14:35.213Z,18.1
2018-04-30T07:19:29.123Z,18
2018-04-30T07:24:23.014Z,18.2
2018-04-30T07:29:16.692Z,18.3
2018-04-30T07:34:10.913Z,18.3
2018-04-30T07:39:04.991Z,18.4
2018-04-30T07:43:59.491Z,18.6
2018-04-30T07:48:53.932Z,18.7
2018-04-30T07:53:47.935Z,18.6
2018-04-30T07:58:42.834Z,18.8
2018-04-30T08:03:36.723Z,18.9
2018-04-30T08:08:31.284Z,19
2018-04-30T08:13:25.575Z,19.1
2018-04-30T08:18:19.064Z,19
2018-04-30T08:23:13.008Z,19.2
2018-04-30T08:28:06.688Z,19.3
2018-04-30T08:33:01.070Z,19.4
2018-04-30T08:37:55.077Z,19.5
2018-04-30T08:42:49.956Z,19.5
2018-04-30T08:47:42.193Z,19.5
2018-04-30T08:52:36.273Z,19.6
2018-04-30T08:57:30.543Z,19.7
2018-04-30T09:02:24.746Z,19.9
2018-04-30T09:07:18.927Z,20.1
2018-04-30T09:12:13.561Z,20.2
2018-04-30T09:17:07.603Z,20.3
2018-04-30T09:22:01.059Z,20.6
2018-04-30T09:26:55.718Z,20.8
2018-04-30T09:31:49.951Z,20.9
2018-04-30T09:36:44.324Z,20.9
2018-04-30T09:41:38.713Z,21.1
2018-04-30T09:46:32.427Z,21.3
2018-04-30T09:51:26.751Z,21.4
2018-04-30T09:56:20.980Z,21.5
2018-04-30T10:01:15.114Z,21.5
2018-04-30T10:06:09.711Z,21.6
2018-04-30T10:11:03.922Z,21.7
2018-04-30T10:15:58.203Z,21.9
2018-04-30T10:20:52.452Z,22.2
2018-04-30T10:25:47.009Z,22.4
2018-04-30T10:30:41.180Z,22.5
2018-04-30T10:35:35.584Z,22.5
2018-04-30T10:40:29.653Z,22.6
2018-04-30T10:45:23.792Z,22.6
2018-04-30T10:50:18.229Z,22.6
2018-04-30T10:55:12.172Z,22.7
2018-04-30T11:00:06.466Z,22.6
2018-04-30T11:05:00.459Z,22.6
2018-04-30T11:09:54.790Z,22.8
2018-04-30T11:14:49.273Z,22.8
2018-04-30T11:19:43.884Z,22.9
2018-04-30T11:24:38.311Z,23
2018-04-30T11:29:32.972Z,23
2018-04-30T11:34:27.293Z,23
2018-04-30T11:39:21.254Z,23
2018-04-30T11:44:16.031Z,23.2
2018-04-30T11:49:10.534Z,23.4
2018-04-30T11:54:04.717Z,23.5
2018-04-30T11:58:59.034Z,23.6
2018-04-30T12:03:53.350Z,23.8
2018-04-30T12:08:48.054Z,23.7
2018-04-30T12:13:41.596Z,23.9
2018-04-30T12:18:35.838Z,24.2
2018-04-30T12:23:30.543Z,24.4
2018-04-30T12:28:25.261Z,24.5
2018-04-30T12:33:19.777Z,24.5
2018-04-30T12:38:14.047Z,24.6
2018-04-30T12:43:08.380Z,24.7
2018-04-30T12:48:02.636Z,24.7
2018-04-30T12:52:56.770Z,24.5
2018-04-30T12:57:50.828Z,24.4
2018-04-30T13:02:44.923Z,24.3
2018-04-30T13:07:39.012Z,24.2
2018-04-30T13:12:33.129Z,24.1
2018-04-30T13:17:26.900Z,24
2018-04-30T13:22:21.415Z,24
2018-04-30T13:27:15.755Z,24
2018-04-30T13:32:09.919Z,24
2018-04-30T13:37:03.804Z,24
2018-04-30T13:41:57.930Z,24
2018-04-30T13:46:51.943Z,24
2018-04-30T13:51:46.597Z,24
2018-04-30T13:56:40.666Z,24.1
2018-04-30T14:01:35.366Z,24
2018-04-30T14:06:29.383Z,24
2018-04-30T14:11:23.446Z,24
2018-04-30T14:16:17.930Z,24
2018-04-30T14:21:11.954Z,23.9
2018-04-30T14:26:06.007Z,23.8
2018-04-30T14:31:00.139Z,23.7
2018-04-30T14:35:54.340Z,23.8
2018-04-30T14:40:48.552Z,23.8
2018-04-30T14:45:43.005Z,23.7
2018-04-30T14:50:37.297Z,23.6
2018-04-30T14:55:31.495Z,23.7
2018-04-30T15:00:26.139Z,23.6
2018-04-30T15:05:20.081Z,23.7
2018-04-30T15:10:14.735Z,23.6
2018-04-30T15:15:08.436Z,23.6
2018-04-30T15:20:02.629Z,23.6
2018-04-30T15:24:57.185Z,23.6
2018-04-30T15:29:51.169Z,23.5
2018-04-30T15:34:45.985Z,23.5
2018-04-30T15:39:40.331Z,23.5
2018-04-30T15:44:34.065Z,23.5
2018-04-30T15:49:28.153Z,23.5
2018-04-30T15:54:22.644Z,23.5
2018-04-30T15:59:17.233Z,23.5
2018-04-30T16:04:12.052Z,23.5
2018-04-30T16:09:06.399Z,23.4
2018-04-30T16:14:00.291Z,23.5
2018-04-30T16:18:54.401Z,23.4
2018-04-30T16:23:48.624Z,23.4
2018-04-30T16:28:42.983Z,23.4
2018-04-30T16:33:37.065Z,23.4
2018-04-30T16:38:31.691Z,23.4
2018-04-30T16:43:25.717Z,23.3
2018-04-30T16:48:20.196Z,23.3
2018-04-30T16:53:14.197Z,23.3
2018-04-30T16:58:08.566Z,23.3
2018-04-30T17:03:02.846Z,23.2
2018-04-30T17:07:57.410Z,23.2
2018-04-30T17:12:51.209Z,23.1
2018-04-30T17:17:45.219Z,23
2018-04-30T17:22:39.264Z,23
2018-04-30T17:27:33.343Z,22.9
2018-04-30T17:32:27.625Z,22.8
2018-04-30T17:37:21.841Z,22.8
2018-04-30T17:42:15.822Z,22.7
2018-04-30T17:47:09.761Z,22.6
2018-04-30T17:52:04.116Z,22.5
2018-04-30T17:56:58.236Z,22.4
2018-04-30T18:01:52.505Z,22.4
2018-04-30T18:06:47.115Z,22.3
2018-04-30T18:11:41.326Z,22.3
2018-04-30T18:16:35.876Z,22.3
2018-04-30T18:21:30.528Z,22.2
2018-04-30T18:26:24.337Z,22.1
2018-04-30T18:31:18.247Z,22
2018-04-30T18:36:12.655Z,22
2018-04-30T18:41:06.824Z,22
2018-04-30T18:46:01.051Z,21.9
2018-04-30T18:50:55.240Z,21.8
2018-04-30T18:55:49.248Z,21.8
2018-04-30T19:00:43.758Z,21.6
2018-04-30T19:05:37.581Z,21.7
2018-04-30T19:10:31.411Z,21.7
2018-04-30T19:15:25.635Z,21.6
2018-04-30T19:20:19.565Z,21.6
2018-04-30T19:25:14.328Z,21.4
2018-04-30T19:30:08.541Z,21.4
2018-04-30T19:35:02.265Z,21.4
2018-04-30T19:39:55.936Z,21.3
2018-04-30T19:44:50.306Z,21.3
2018-04-30T19:49:44.370Z,21.3
2018-04-30T19:54:38.985Z,21.2
2018-04-30T19:59:33.288Z,21.1
2018-04-30T20:04:27.276Z,21.2
2018-04-30T20:09:21.412Z,21.1
2018-04-30T20:14:15.302Z,21
2018-04-30T20:19:09.587Z,20.9
2018-04-30T20:24:03.612Z,20.9
2018-04-30T20:28:57.660Z,20.8
2018-04-30T20:33:51.641Z,20.7
2018-04-30T20:38:46.599Z,20.7
2018-04-30T20:43:40.780Z,20.7
2018-04-30T20:48:35.491Z,20.7
2018-04-30T20:53:29.422Z,20.7
2018-04-30T20:58:23.939Z,20.7
2018-04-30T21:03:18.128Z,20.6
2018-04-30T21:08:12.213Z,20.5
2018-04-30T21:13:06.521Z,20.5
2018-04-30T21:18:00.613Z,20.5
2018-04-30T21:22:54.689Z,20.4
2018-04-30T21:27:49.338Z,20.2
2018-04-30T21:32:43.398Z,20.3
2018-04-30T21:37:37.454Z,20.2
2018-04-30T21:42:31.694Z,20.2
2018-04-30T21:47:26.122Z,20.3
2018-04-30T21:52:20.148Z,20.3
2018-04-30T21:57:14.569Z,20.2
2018-04-30T22:02:09.232Z,20.2
2018-04-30T22:07:03.697Z,20.2
2018-04-30T22:11:58.083Z,20.2
2018-04-30T22:16:52.749Z,20.2
2018-04-30T22:21:47.046Z,20.1
2018-04-30T22:26:40.729Z,20.1
2018-04-30T22:31:34.860Z,20
2018-04-30T22:36:29.382Z,19.9
2018-04-30T22:41:23.704Z,19.9
2018-04-30T22:46:18.114Z,19.9
2018-04-30T22:51:12.344Z,19.8
2018-04-30T22:56:06.276Z,19.8
2018-04-30T23:01:00.302Z,19.8
2018-04-30T23:05:54.558Z,19.8
2018-04-30T23:10:48.562Z,19.8
2018-04-30T23:15:42.945Z,19.7
2018-04-30T23:20:36.877Z,19.6
2018-04-30T23:25:30.917Z,19.5
2018-04-30T23:30:24.937Z,19.5
2018-04-30T23:35:18.953Z,19.4
2018-04-30T23:40:12.619Z,19.4
2018-04-30T23:45:06.580Z,19.3
2018-04-30T23:50:00.872Z,19.3
2018-04-30T23:54:55.148Z,19.2
2018-04-30T23:59:49.175Z,19.2
